KUNU/UNU METAR and TAF weather

Enter ICAO airport designator
Station Type Date Time Source
KUNU METAR 2020/01/23 06:15 UTC NOAA

KUNU 230615Z AUTO 15004KT 5SM -SN BKN021 OVC031 M02/M03 A3005 RMK AO2 T10211032


Station Type Date Time Source
KUNU Decoded METAR 2020/01/23 06:15 UTC NOAA

Juneau, Dodge County Airport, WI, United States (KUNU) 43-25-36N 088-42-12W
Jan 23, 2020 - 01:15 AM EST / 2020.01.23 0615 UTC
Wind: from the SSE (150 degrees) at 5 MPH (4 KT):0
Visibility: 5 mile(s):0
Sky conditions: overcast
Weather: light snow
Temperature: 28.2 F (-2.1 C)
Windchill: 23 F (-5 C):1
Dew Point: 26.2 F (-3.2 C)
Relative Humidity: 92%
Pressure (altimeter): 30.05 in. Hg (1017 hPa)
ob: KUNU 230615Z AUTO 15004KT 5SM -SN BKN021 OVC031 M02/M03 A3005 RMK AO2 T10211032
cycle: 6

Station Type Date Time Source
KUNU TAF UTC NOAA

Error!

Example: see airport list